Terminal Aerodrome Forecast
Issued by NWS Pittsburgh, PA

Current Version | Previous Version | Graphics & Text | Print | Product List | Glossary On
Versions: 1 2 3 4 5 6 7 8 9 10 11 12 13 14 15 16 17 18 19 20 21 22 23 24 25 26
000
FTUS41 KPBZ 270900 AAA
TAFPIT
TAF AMD
KPIT 270900Z 2709/2812 20003KT P6SM BKN100
     FM271000 VRB05KT 5SM BR BKN020
     FM271600 22010KT P6SM BKN050
     FM280500 24006KT 6SM -RA OVC040
     FM280900 25004KT 5SM BR OVC030=

USA.gov is the U.S. government's official web portal to all federal, state and local government web resources and services.